Time;durP1;ratioP1;P1;durP2;ratioP2;P2;SDS_P1;SDS_P2;PMS_P1;PMS_P2;Temp;Humidity;BMP_temperature;BMP_pressure;BME280_temperature;BME280_humidity;BME280_pressure;Samples;Min_cycle;Max_cycle;Signal;HPM_P1;HPM_P2
2022/09/26 00:00:41;;;;;;;3.80;2.50;;;8.70;99.90;;;;;;5112698;27;20202;-47
2022/09/26 00:03:07;;;;;;;4.33;2.40;;;8.70;99.90;;;;;;5104773;28;20957;-44
2022/09/26 00:05:34;;;;;;;4.77;2.20;;;8.70;99.90;;;;;;5077544;27;20418;-49
2022/09/26 00:08:02;;;;;;;3.83;2.27;;;8.80;99.90;;;;;;5113892;27;20716;-44
2022/09/26 00:10:29;;;;;;;4.83;2.00;;;8.80;99.90;;;;;;5119639;27;20188;-48
2022/09/26 00:12:56;;;;;;;3.53;2.20;;;8.80;99.90;;;;;;5126011;27;20189;-45
2022/09/26 00:15:23;;;;;;;2.87;1.97;;;8.80;99.90;;;;;;5121318;27;20279;-49
2022/09/26 00:17:51;;;;;;;3.90;1.50;;;8.80;99.90;;;;;;5098638;27;20258;-45
2022/09/26 00:20:18;;;;;;;3.90;2.20;;;8.80;99.90;;;;;;5093384;27;20197;-45
2022/09/26 00:22:45;;;;;;;7.43;2.20;;;8.80;99.90;;;;;;5100539;27;20284;-47
2022/09/26 00:25:12;;;;;;;3.83;2.30;;;8.80;99.90;;;;;;5102289;28;20624;-50
2022/09/26 00:27:39;;;;;;;2.27;1.67;;;8.90;99.90;;;;;;5102203;27;20293;-51
2022/09/26 00:30:06;;;;;;;5.87;2.10;;;8.90;99.90;;;;;;5102814;28;20189;-46
2022/09/26 00:32:33;;;;;;;4.83;2.07;;;8.90;99.90;;;;;;5093343;27;20217;-44
2022/09/26 00:35:01;;;;;;;3.60;2.00;;;8.90;99.90;;;;;;5093627;27;20200;-46
2022/09/26 00:37:28;;;;;;;3.00;2.20;;;8.90;99.90;;;;;;5089847;27;20960;-46
2022/09/26 00:39:55;;;;;;;4.60;1.70;;;8.80;99.90;;;;;;5115460;27;20192;-46
2022/09/26 00:42:24;;;;;;;3.27;1.70;;;8.80;99.90;;;;;;5122191;27;20716;-46
2022/09/26 00:44:54;;;;;;;2.60;1.67;;;8.80;99.90;;;;;;5123987;27;20559;-46
2022/09/26 00:47:41;;;;;;;2.37;1.70;;;8.80;99.90;;;;;;5101426;27;20209;-44
2022/09/26 00:50:16;;;;;;;3.57;1.93;;;8.80;99.90;;;;;;5087246;28;20206;-45
2022/09/26 00:52:46;;;;;;;5.53;1.77;;;8.80;99.90;;;;;;5093223;27;20635;-44
2022/09/26 00:55:17;;;;;;;2.07;1.50;;;8.80;99.90;;;;;;5106432;27;20833;-45
2022/09/26 00:57:50;;;;;;;6.67;1.83;;;8.90;99.90;;;;;;5102674;28;20343;-47
2022/09/26 01:00:17;;;;;;;3.73;1.80;;;8.90;99.90;;;;;;5102477;28;20307;-46
2022/09/26 01:02:46;;;;;;;3.17;1.70;;;8.90;99.90;;;;;;5102266;28;20268;-48
2022/09/26 01:05:16;;;;;;;5.47;1.60;;;8.90;99.90;;;;;;5094456;27;20212;-45
2022/09/26 01:07:43;;;;;;;4.27;1.90;;;8.90;99.90;;;;;;5091494;27;20427;-47
2022/09/26 01:10:11;;;;;;;3.53;1.70;;;8.90;99.90;;;;;;5110817;27;20189;-47
2022/09/26 01:12:38;;;;;;;2.13;1.80;;;8.90;99.90;;;;;;5120705;27;20188;-44
2022/09/26 01:15:07;;;;;;;4.00;1.63;;;8.90;99.90;;;;;;5123794;27;20224;-48
2022/09/26 01:17:35;;;;;;;3.50;1.97;;;8.80;99.90;;;;;;5101757;27;20213;-47
2022/09/26 01:20:19;;;;;;;2.47;1.80;;;8.80;99.90;;;;;;5096191;27;20205;-47
2022/09/26 01:23:12;;;;;;;3.13;1.67;;;8.80;99.90;;;;;;5106946;27;20547;-44
2022/09/26 01:26:01;;;;;;;3.07;1.70;;;8.70;99.90;;;;;;5097777;27;20269;-47
2022/09/26 01:28:41;;;;;;;2.93;1.90;;;8.70;99.90;;;;;;5116798;27;20200;-46
2022/09/26 01:31:17;;;;;;;3.13;1.90;;;8.70;99.90;;;;;;5122797;27;20573;-46
2022/09/26 01:33:57;;;;;;;3.30;1.90;;;8.70;99.90;;;;;;5108951;27;20745;-44
2022/09/26 01:36:52;;;;;;;2.90;1.90;;;8.70;99.90;;;;;;5083745;27;20226;-44
2022/09/26 01:39:42;;;;;;;4.80;2.17;;;8.70;99.90;;;;;;5102719;27;20192;-48
2022/09/26 01:42:22;;;;;;;2.30;1.83;;;8.60;99.90;;;;;;5104011;27;20203;-47
2022/09/26 01:44:55;;;;;;;2.43;1.60;;;8.60;99.90;;;;;;5081917;28;20186;-46
2022/09/26 01:47:29;;;;;;;4.10;2.00;;;8.60;99.90;;;;;;5095113;28;20221;-47
2022/09/26 01:50:01;;;;;;;2.60;2.10;;;8.70;99.90;;;;;;5098463;27;20595;-45
2022/09/26 01:52:35;;;;;;;6.57;2.20;;;8.60;99.90;;;;;;5083720;27;20206;-47
2022/09/26 01:55:09;;;;;;;4.63;2.07;;;8.60;99.90;;;;;;5101372;27;20242;-46
2022/09/26 01:57:40;;;;;;;4.47;2.03;;;8.70;99.90;;;;;;5107851;27;20212;-48
2022/09/26 02:00:11;;;;;;;3.73;1.93;;;8.70;99.90;;;;;;5101986;28;20286;-44
2022/09/26 02:02:47;;;;;;;2.90;2.57;;;8.70;99.90;;;;;;5097584;28;20189;-44
2022/09/26 02:05:22;;;;;;;2.97;2.07;;;8.70;99.90;;;;;;5094981;28;20908;-46
2022/09/26 02:07:55;;;;;;;2.20;2.00;;;8.70;99.90;;;;;;5097442;27;20211;-46
2022/09/26 02:10:27;;;;;;;6.10;2.30;;;8.70;99.90;;;;;;5098595;27;20188;-46
2022/09/26 02:13:01;;;;;;;4.53;2.07;;;8.80;99.90;;;;;;5104044;27;20198;-45
2022/09/26 02:15:31;;;;;;;5.93;2.40;;;8.80;99.90;;;;;;5113369;27;20744;-47
2022/09/26 02:18:06;;;;;;;5.20;2.40;;;8.90;99.90;;;;;;5094837;28;20224;-48
2022/09/26 02:20:38;;;;;;;5.23;2.43;;;8.90;99.90;;;;;;5091772;28;20205;-47
2022/09/26 02:23:05;;;;;;;4.33;2.10;;;9.00;99.90;;;;;;5093141;27;20214;-45
2022/09/26 02:25:33;;;;;;;5.83;2.30;;;9.00;99.90;;;;;;5100349;27;20196;-49
2022/09/26 02:28:00;;;;;;;2.53;2.33;;;9.00;99.90;;;;;;5094137;28;20223;-48
2022/09/26 02:30:28;;;;;;;5.87;2.53;;;9.00;99.90;;;;;;5110616;27;20565;-48
2022/09/26 02:32:55;;;;;;;5.10;2.17;;;9.00;99.90;;;;;;5121890;27;20295;-47
2022/09/26 02:38:10;;;;;;;4.17;2.27;;;9.10;99.90;;;;;;5090140;28;20194;-45
2022/09/26 02:40:51;;;;;;;4.37;2.53;;;9.20;99.90;;;;;;5104071;28;20180;-47
2022/09/26 02:43:41;;;;;;;3.67;2.40;;;9.20;99.90;;;;;;5095688;27;20212;-49
2022/09/26 02:46:27;;;;;;;5.27;2.30;;;9.20;99.90;;;;;;5103989;28;20239;-50
2022/09/26 02:49:08;;;;;;;4.50;2.40;;;9.30;99.90;;;;;;5101345;28;20193;-47
2022/09/26 02:51:53;;;;;;;2.50;2.00;;;9.30;99.90;;;;;;5091957;28;20209;-49
2022/09/26 02:54:25;;;;;;;5.87;2.27;;;9.30;99.90;;;;;;5083698;28;20285;-47
2022/09/26 02:57:05;;;;;;;8.90;2.57;;;9.30;99.90;;;;;;5084156;28;20352;-47
2022/09/26 02:59:44;;;;;;;5.80;2.60;;;9.30;99.90;;;;;;5104802;28;20375;-50
2022/09/26 03:02:15;;;;;;;3.67;2.43;;;9.40;99.90;;;;;;5100454;28;20204;-47
2022/09/26 03:04:51;;;;;;;5.27;2.73;;;9.40;99.90;;;;;;5103964;27;20177;-47
2022/09/26 03:07:25;;;;;;;4.73;2.60;;;9.40;99.90;;;;;;5099494;27;20519;-46
2022/09/26 03:09:54;;;;;;;4.47;2.20;;;9.40;99.90;;;;;;5094818;27;20196;-48
2022/09/26 03:12:23;;;;;;;7.07;2.60;;;9.40;99.90;;;;;;5104715;27;20192;-51
2022/09/26 03:14:51;;;;;;;2.83;1.90;;;9.40;99.90;;;;;;5105861;27;20249;-46
2022/09/26 03:17:21;;;;;;;5.60;2.10;;;9.40;99.90;;;;;;5100941;27;20580;-48
2022/09/26 03:19:54;;;;;;;2.50;1.77;;;9.50;99.90;;;;;;5103721;28;20692;-47
2022/09/26 03:22:23;;;;;;;2.90;2.47;;;9.50;99.90;;;;;;5097721;28;20300;-49
2022/09/26 03:24:50;;;;;;;5.60;1.83;;;9.50;99.90;;;;;;5091634;28;20399;-49
2022/09/26 03:27:18;;;;;;;2.83;2.23;;;9.50;99.90;;;;;;5107451;27;20227;-50
2022/09/26 03:29:48;;;;;;;3.13;1.87;;;9.50;99.90;;;;;;5095114;27;20221;-49
2022/09/26 03:32:20;;;;;;;5.67;2.07;;;9.60;99.90;;;;;;5114125;27;20192;-45
2022/09/26 03:34:50;;;;;;;5.43;2.27;;;9.60;99.90;;;;;;5123203;27;20276;-48
2022/09/26 03:37:17;;;;;;;2.93;1.83;;;9.60;99.90;;;;;;5119533;27;20211;-47
2022/09/26 03:39:46;;;;;;;4.43;1.80;;;9.60;99.90;;;;;;5100254;27;20427;-45
2022/09/26 03:42:19;;;;;;;2.10;1.80;;;9.70;99.90;;;;;;5094095;27;20260;-47
2022/09/26 03:44:47;;;;;;;4.83;2.10;;;9.70;99.90;;;;;;5093512;27;20223;-45
2022/09/26 03:47:34;;;;;;;2.80;1.73;;;9.70;99.90;;;;;;5102706;27;20315;-49
2022/09/26 03:50:04;;;;;;;1.50;1.43;;;9.70;99.90;;;;;;5104086;27;20193;-47
2022/09/26 03:52:31;;;;;;;5.07;2.03;;;9.80;99.90;;;;;;5094476;27;20197;-47
2022/09/26 03:54:59;;;;;;;6.50;2.37;;;9.80;99.90;;;;;;5103779;28;20568;-45
2022/09/26 03:57:27;;;;;;;3.63;2.00;;;9.80;99.90;;;;;;5094885;27;20225;-47
2022/09/26 04:00:06;;;;;;;3.87;2.00;;;9.80;99.90;;;;;;5100624;27;20217;-46
2022/09/26 04:02:42;;;;;;;3.13;2.23;;;9.90;99.90;;;;;;5113516;27;20196;-46
2022/09/26 04:05:21;;;;;;;4.77;1.87;;;9.90;99.90;;;;;;5092519;27;20185;-45
2022/09/26 04:07:47;;;;;;;4.50;2.23;;;9.90;99.90;;;;;;5103973;27;20568;-49
2022/09/26 04:10:16;;;;;;;2.83;1.93;;;9.90;99.90;;;;;;5093267;27;20205;-46
2022/09/26 04:12:45;;;;;;;2.13;1.90;;;9.90;99.90;;;;;;5102497;27;20246;-50
2022/09/26 04:15:13;;;;;;;5.23;2.40;;;10.00;99.90;;;;;;5101610;27;20637;-45
2022/09/26 04:17:39;;;;;;;3.70;1.80;;;10.00;99.90;;;;;;5111144;27;20308;-46
2022/09/26 04:20:08;;;;;;;3.80;2.27;;;10.00;99.90;;;;;;5116522;27;20696;-45
2022/09/26 04:22:36;;;;;;;4.27;2.30;;;10.00;99.90;;;;;;5111215;27;20213;-46
2022/09/26 04:25:03;;;;;;;3.77;2.20;;;10.00;99.90;;;;;;5095597;27;20251;-46
2022/09/26 04:27:31;;;;;;;3.60;2.40;;;10.00;99.90;;;;;;5093836;27;20229;-48
2022/09/26 04:29:58;;;;;;;5.77;2.83;;;10.00;99.90;;;;;;5112755;27;20679;-45
2022/09/26 04:32:41;;;;;;;3.30;2.23;;;10.00;99.90;;;;;;5102727;27;20189;-49
2022/09/26 04:35:27;;;;;;;5.87;2.60;;;10.10;99.90;;;;;;5097501;28;20201;-48
2022/09/26 04:37:54;;;;;;;5.17;2.70;;;10.10;99.90;;;;;;5104683;28;20264;-45
2022/09/26 04:40:22;;;;;;;3.33;2.83;;;10.10;99.90;;;;;;5093301;27;20275;-50
2022/09/26 04:43:07;;;;;;;5.83;2.63;;;10.10;99.90;;;;;;5098313;28;20679;-46
2022/09/26 04:45:33;;;;;;;2.53;2.33;;;10.10;99.90;;;;;;5105392;27;20205;-44
2022/09/26 04:48:01;;;;;;;3.27;2.50;;;10.10;99.90;;;;;;5096761;27;20362;-45
2022/09/26 04:50:51;;;;;;;4.83;2.97;;;10.10;99.90;;;;;;5084230;28;20202;-45
2022/09/26 04:53:19;;;;;;;3.93;2.50;;;10.10;99.90;;;;;;5108557;27;20185;-47
2022/09/26 04:55:57;;;;;;;3.33;2.20;;;10.10;99.90;;;;;;5090077;27;20227;-46
2022/09/26 04:58:25;;;;;;;3.23;2.40;;;10.20;99.90;;;;;;5092367;27;20209;-46
2022/09/26 05:00:52;;;;;;;3.93;2.20;;;10.10;99.90;;;;;;5102027;27;20611;-46
2022/09/26 05:03:31;;;;;;;8.20;3.50;;;10.10;99.90;;;;;;5090130;27;20212;-46
2022/09/26 05:05:58;;;;;;;4.37;2.73;;;10.10;99.90;;;;;;5106100;27;20305;-47
2022/09/26 05:08:25;;;;;;;2.80;2.40;;;10.10;99.90;;;;;;5101606;28;20217;-46
2022/09/26 05:10:54;;;;;;;6.30;3.17;;;10.10;99.90;;;;;;5098130;28;20200;-47
2022/09/26 05:13:20;;;;;;;5.27;2.53;;;10.20;99.90;;;;;;5097942;28;20297;-46
2022/09/26 05:15:54;;;;;;;4.87;2.90;;;10.10;99.90;;;;;;5094476;27;20216;-48
2022/09/26 05:18:23;;;;;;;9.17;3.23;;;10.10;99.90;;;;;;5090411;27;20258;-47
2022/09/26 05:20:50;;;;;;;3.60;2.73;;;10.20;99.90;;;;;;5095114;27;20202;-48
2022/09/26 05:26:18;;;;;;;10.07;3.67;;;10.10;99.90;;;;;;5098787;28;20197;-46
2022/09/26 05:26:20;;;;;;;5.53;3.10;;;10.20;99.90;;;;;;5097113;28;20210;-50
2022/09/26 05:28:49;;;;;;;3.97;3.13;;;10.10;99.90;;;;;;5091773;28;20930;-45
2022/09/26 05:31:18;;;;;;;2.80;2.50;;;10.10;99.90;;;;;;5088837;28;20208;-48
2022/09/26 05:33:45;;;;;;;7.80;3.70;;;10.20;99.90;;;;;;5098805;27;20205;-49
2022/09/26 05:36:13;;;;;;;8.50;3.60;;;10.20;99.90;;;;;;5097106;27;20282;-52
2022/09/26 05:38:40;;;;;;;9.27;3.33;;;10.20;99.90;;;;;;5101979;28;20193;-45
2022/09/26 05:41:06;;;;;;;3.50;3.20;;;10.20;99.90;;;;;;5096625;28;20331;-44
2022/09/26 05:43:34;;;;;;;8.43;4.20;;;10.20;99.90;;;;;;5094609;28;20619;-44
2022/09/26 05:46:06;;;;;;;8.70;4.40;;;10.20;99.90;;;;;;5085984;27;20925;-44
2022/09/26 05:48:40;;;;;;;7.50;2.97;;;10.20;99.90;;;;;;5097347;27;20566;-48
2022/09/26 05:51:18;;;;;;;7.50;3.87;;;10.20;99.90;;;;;;5086373;27;20494;-48
2022/09/26 05:53:46;;;;;;;5.73;3.30;;;10.20;99.90;;;;;;5098966;28;20297;-48
2022/09/26 05:56:18;;;;;;;6.80;2.90;;;10.30;99.90;;;;;;5098618;28;20213;-47
2022/09/26 05:59:15;;;;;;;6.43;3.60;;;10.20;99.90;;;;;;5084945;27;20209;-44
2022/09/26 06:02:00;;;;;;;6.60;4.37;;;10.30;99.90;;;;;;5095795;27;20211;-49
2022/09/26 06:04:44;;;;;;;6.17;2.67;;;10.30;99.90;;;;;;5100106;27;20204;-47
2022/09/26 06:07:29;;;;;;;4.57;3.27;;;10.30;99.90;;;;;;5122193;27;20216;-46
2022/09/26 06:09:57;;;;;;;7.53;2.90;;;10.30;99.90;;;;;;5100122;27;20288;-45
2022/09/26 06:12:34;;;;;;;9.13;3.70;;;10.40;99.90;;;;;;5092184;28;20189;-46
2022/09/26 06:15:01;;;;;;;5.43;3.87;;;10.40;99.90;;;;;;5090387;28;20285;-49
2022/09/26 06:17:28;;;;;;;6.80;2.90;;;10.40;99.90;;;;;;5099689;27;20229;-46
2022/09/26 06:19:56;;;;;;;4.27;2.97;;;10.50;99.90;;;;;;5094963;27;20209;-50
2022/09/26 06:22:25;;;;;;;4.60;2.43;;;10.50;99.90;;;;;;5101053;27;20217;-48
2022/09/26 06:24:52;;;;;;;3.83;2.90;;;10.60;99.90;;;;;;5098074;28;20718;-47
2022/09/26 06:27:21;;;;;;;4.33;2.77;;;10.60;99.90;;;;;;5099906;28;20216;-47
2022/09/26 06:29:48;;;;;;;4.43;2.40;;;10.60;99.90;;;;;;5096411;28;20201;-45
2022/09/26 06:32:14;;;;;;;6.47;4.00;;;10.70;99.90;;;;;;5091040;28;20409;-45
2022/09/26 06:35:16;;;;;;;7.43;3.33;;;10.70;99.90;;;;;;5086660;28;20308;-45
2022/09/26 06:38:04;;;;;;;7.03;3.33;;;10.80;99.90;;;;;;5105436;28;20204;-47
2022/09/26 06:40:33;;;;;;;4.80;3.27;;;10.80;99.90;;;;;;5109875;27;20296;-50
2022/09/26 06:43:00;;;;;;;4.53;2.67;;;10.80;99.90;;;;;;5110325;27;20238;-51
2022/09/26 06:45:47;;;;;;;3.60;2.70;;;10.90;99.90;;;;;;5087321;27;20322;-46
2022/09/26 06:48:23;;;;;;;5.43;3.03;;;10.90;99.90;;;;;;5098935;27;20213;-49
2022/09/26 06:50:59;;;;;;;6.60;2.60;;;10.90;99.90;;;;;;5098007;27;20203;-49
2022/09/26 06:53:28;;;;;;;4.37;3.10;;;11.00;99.90;;;;;;5122929;27;20551;-49
2022/09/26 06:55:58;;;;;;;6.40;3.40;;;11.00;99.90;;;;;;5115149;27;20216;-45
2022/09/26 06:58:24;;;;;;;4.67;3.57;;;11.10;99.90;;;;;;5100383;28;20197;-50
2022/09/26 07:00:59;;;;;;;5.90;2.70;;;11.10;99.90;;;;;;5096516;27;20288;-45
2022/09/26 07:03:44;;;;;;;3.30;2.20;;;11.20;99.90;;;;;;5081710;28;22054;-47
2022/09/26 07:06:25;;;;;;;7.60;3.80;;;11.20;99.90;;;;;;5097617;27;20235;-49
2022/09/26 07:08:54;;;;;;;3.93;3.13;;;11.30;99.90;;;;;;5088032;27;20372;-47
2022/09/26 07:11:36;;;;;;;7.20;3.40;;;11.30;99.90;;;;;;5101593;28;20256;-48
2022/09/26 07:14:03;;;;;;;2.53;2.03;;;11.30;99.90;;;;;;5102642;28;20189;-47
2022/09/26 07:16:30;;;;;;;3.23;2.40;;;11.30;99.90;;;;;;5101127;27;20231;-45
2022/09/26 07:19:06;;;;;;;6.40;2.77;;;11.30;99.90;;;;;;5095490;27;20289;-46
2022/09/26 07:21:53;;;;;;;4.10;3.30;;;11.30;99.90;;;;;;5086992;27;20310;-48
2022/09/26 07:24:31;;;;;;;6.60;2.70;;;11.30;99.90;;;;;;5100334;27;20189;-47
2022/09/26 07:26:58;;;;;;;2.90;2.70;;;11.30;99.90;;;;;;5093555;28;20941;-45
2022/09/26 07:29:26;;;;;;;3.63;2.30;;;11.40;99.90;;;;;;5103705;27;20716;-50
2022/09/26 07:31:52;;;;;;;4.27;2.83;;;11.40;99.90;;;;;;5101100;28;20185;-47
2022/09/26 07:34:46;;;;;;;5.17;2.97;;;11.40;99.90;;;;;;5065737;27;20478;-45
2022/09/26 07:37:16;;;;;;;4.50;2.93;;;11.40;99.90;;;;;;5100864;27;20290;-46
2022/09/26 07:39:44;;;;;;;4.10;2.43;;;11.50;99.90;;;;;;5109183;27;20404;-46
2022/09/26 07:42:11;;;;;;;5.43;3.20;;;11.50;99.90;;;;;;5107180;27;20197;-46
2022/09/26 07:44:39;;;;;;;2.97;2.13;;;11.50;99.90;;;;;;5101578;27;20654;-47
2022/09/26 07:52:53;;;;;;;2.40;2.20;;;11.50;99.90;;;;;;5081525;27;20199;-45
2022/09/26 07:55:25;;;;;;;3.47;2.87;;;11.50;99.90;;;;;;5111666;27;20318;-45
2022/09/26 07:58:10;;;;;;;6.57;3.20;;;11.50;99.90;;;;;;5113376;27;20214;-46
2022/09/26 08:01:10;;;;;;;3.97;2.90;;;11.50;99.90;;;;;;5117569;27;20688;-48
2022/09/26 08:04:06;;;;;;;4.00;2.63;;;11.60;99.90;;;;;;5100143;27;20209;-46
2022/09/26 08:06:37;;;;;;;3.03;2.63;;;11.50;99.90;;;;;;5083424;27;20228;-46
2022/09/26 08:09:06;;;;;;;5.13;2.90;;;11.60;99.90;;;;;;5104197;27;20218;-45
2022/09/26 08:11:52;;;;;;;5.60;3.37;;;11.60;99.90;;;;;;5099848;27;20824;-47
2022/09/26 08:14:41;;;;;;;4.43;2.97;;;11.60;99.90;;;;;;5106475;27;20280;-47
2022/09/26 08:17:15;;;;;;;4.60;2.63;;;11.60;99.90;;;;;;5099653;27;20216;-46
2022/09/26 08:19:42;;;;;;;4.77;2.73;;;11.60;99.90;;;;;;5097347;27;20328;-52
2022/09/26 08:22:10;;;;;;;5.27;2.77;;;11.60;99.90;;;;;;5097818;27;20220;-45
2022/09/26 08:24:38;;;;;;;3.63;2.93;;;11.70;99.90;;;;;;5108503;27;20207;-51
2022/09/26 08:27:19;;;;;;;4.77;3.40;;;11.60;99.90;;;;;;5099805;27;20217;-44
2022/09/26 08:29:47;;;;;;;3.27;2.97;;;11.70;99.90;;;;;;5102773;27;20212;-47
2022/09/26 08:32:15;;;;;;;6.37;3.13;;;11.70;99.90;;;;;;5099808;27;20235;-47
2022/09/26 08:34:42;;;;;;;6.53;3.60;;;11.70;99.90;;;;;;5096448;27;20276;-45
2022/09/26 08:37:28;;;;;;;4.17;3.50;;;11.70;99.90;;;;;;5078897;27;20301;-47
2022/09/26 08:40:15;;;;;;;5.27;3.90;;;12.00;99.90;;;;;;5107692;27;20204;-50
2022/09/26 08:43:11;;;;;;;11.53;4.43;;;11.80;99.90;;;;;;5099318;27;20209;-48
2022/09/26 08:49:40;;;;;;;5.43;3.40;;;11.90;99.90;;;;;;5123030;27;20622;-47
2022/09/26 08:52:21;;;;;;;7.40;4.20;;;12.00;99.90;;;;;;5074862;27;20217;-47
2022/09/26 08:54:51;;;;;;;4.23;3.83;;;12.20;99.90;;;;;;5108095;27;20198;-48
2022/09/26 08:57:32;;;;;;;6.60;4.67;;;12.20;99.90;;;;;;5102582;27;20256;-46
2022/09/26 09:00:07;;;;;;;4.93;3.80;;;12.30;99.90;;;;;;5104996;27;20185;-49
2022/09/26 09:02:38;;;;;;;5.73;4.30;;;12.40;99.90;;;;;;5097015;27;20282;-49
2022/09/26 09:05:15;;;;;;;6.13;3.90;;;12.40;99.90;;;;;;5098820;27;20963;-47
2022/09/26 09:07:48;;;;;;;8.40;4.73;;;12.50;99.90;;;;;;5082054;27;20325;-45
2022/09/26 09:10:17;;;;;;;5.67;5.07;;;12.60;99.90;;;;;;5112717;27;20213;-51
2022/09/26 09:12:59;;;;;;;6.03;5.10;;;12.70;99.90;;;;;;5095862;27;20280;-49
2022/09/26 09:15:56;;;;;;;9.20;4.43;;;12.80;99.90;;;;;;5093261;27;20628;-46
2022/09/26 09:19:00;;;;;;;4.90;4.40;;;13.00;99.90;;;;;;5097608;28;20189;-49
2022/09/26 09:22:00;;;;;;;5.13;4.23;;;13.10;99.90;;;;;;5105496;27;20322;-47
2022/09/26 09:24:55;;;;;;;7.30;5.60;;;13.10;99.90;;;;;;5092983;27;20204;-49
2022/09/26 09:27:35;;;;;;;6.23;5.00;;;13.10;99.90;;;;;;5103405;27;20260;-47
2022/09/26 09:30:15;;;;;;;5.00;4.50;;;13.00;99.90;;;;;;5105722;27;20266;-46
2022/09/26 09:32:57;;;;;;;5.87;4.60;;;13.00;99.90;;;;;;5096462;27;20200;-48
2022/09/26 09:35:43;;;;;;;6.30;4.60;;;13.00;99.90;;;;;;5098048;28;20189;-49
2022/09/26 09:38:26;;;;;;;8.33;5.00;;;13.00;99.90;;;;;;5088003;27;20201;-48
2022/09/26 09:41:04;;;;;;;6.23;5.27;;;13.00;99.90;;;;;;5105933;27;20197;-47
2022/09/26 09:43:37;;;;;;;5.20;4.43;;;12.90;99.90;;;;;;5119137;27;20283;-48
2022/09/26 09:46:14;;;;;;;5.57;4.77;;;13.00;99.90;;;;;;5099904;27;20282;-47
2022/09/26 09:48:42;;;;;;;4.80;4.23;;;13.00;99.90;;;;;;5092256;27;20217;-46
2022/09/26 09:51:18;;;;;;;5.10;4.10;;;13.00;99.90;;;;;;5120188;27;20197;-46
2022/09/26 09:54:17;;;;;;;6.43;5.20;;;13.10;99.90;;;;;;5085372;27;20460;-48
2022/09/26 09:56:58;;;;;;;7.47;4.60;;;13.20;99.90;;;;;;5097943;27;20325;-46
2022/09/26 09:59:46;;;;;;;5.70;4.03;;;13.10;99.90;;;;;;5099453;27;20194;-47
2022/09/26 10:02:31;;;;;;;3.97;3.67;;;13.20;99.90;;;;;;5078021;28;20202;-48
2022/09/26 10:05:15;;;;;;;3.73;3.43;;;13.20;99.90;;;;;;5090667;28;20765;-47
2022/09/26 10:07:43;;;;;;;5.27;3.83;;;13.20;99.90;;;;;;5100114;27;20213;-46
2022/09/26 10:10:40;;;;;;;6.57;2.93;;;13.30;99.90;;;;;;5089581;27;20585;-48
2022/09/26 10:13:31;;;;;;;3.97;2.97;;;13.30;99.90;;;;;;5105907;27;20674;-48
2022/09/26 10:16:23;;;;;;;2.90;2.43;;;13.30;99.90;;;;;;5098834;28;20357;-47
2022/09/26 10:19:03;;;;;;;7.47;2.97;;;13.40;99.90;;;;;;5105932;27;20193;-46
2022/09/26 10:21:32;;;;;;;2.93;1.87;;;13.40;99.90;;;;;;5099961;28;20684;-47
2022/09/26 10:24:03;;;;;;;5.47;2.60;;;13.30;99.90;;;;;;5097908;28;20201;-46
2022/09/26 10:26:48;;;;;;;5.23;2.37;;;13.50;99.90;;;;;;5086919;28;20247;-50
2022/09/26 10:29:33;;;;;;;3.03;2.40;;;13.50;99.90;;;;;;5098451;27;20760;-44
2022/09/26 10:32:01;;;;;;;6.87;2.37;;;13.50;99.90;;;;;;5102050;28;20190;-47
2022/09/26 10:34:32;;;;;;;2.67;2.10;;;13.60;99.90;;;;;;5079002;28;20214;-47
2022/09/26 10:37:21;;;;;;;3.70;2.67;;;13.60;99.90;;;;;;5089159;28;22346;-48
2022/09/26 10:42:37;;;;;;;3.20;2.80;;;13.60;99.90;;;;;;5091964;28;20203;-47
2022/09/26 10:45:12;;;;;;;3.17;2.33;;;13.50;99.90;;;;;;5099871;28;20239;-47
2022/09/26 10:48:20;;;;;;;4.70;3.07;;;13.60;99.90;;;;;;5091693;28;20208;-47
2022/09/26 10:51:26;;;;;;;4.67;3.03;;;13.60;99.90;;;;;;5103138;28;20672;-44
2022/09/26 10:54:04;;;;;;;2.50;2.30;;;13.60;99.90;;;;;;5097603;28;20353;-44
2022/09/26 10:56:36;;;;;;;2.40;2.20;;;13.60;99.90;;;;;;5081144;28;20229;-46
2022/09/26 10:59:09;;;;;;;3.33;2.10;;;13.60;99.90;;;;;;5100267;28;20666;-47
2022/09/26 11:01:41;;;;;;;3.63;2.57;;;13.50;99.90;;;;;;5098729;28;20258;-44
2022/09/26 11:05:55;;;;;;;6.97;2.93;;;13.60;99.90;;;;;;5094071;28;20211;-44
2022/09/26 11:07:34;;;;;;;2.30;2.13;;;13.60;99.90;;;;;;5095921;28;20701;-44
2022/09/26 11:10:25;;;;;;;3.17;2.43;;;13.60;99.90;;;;;;5100963;28;20224;-45
2022/09/26 11:13:03;;;;;;;2.30;2.10;;;13.50;99.90;;;;;;5092689;28;20201;-44
2022/09/26 11:15:30;;;;;;;2.63;1.90;;;13.60;99.90;;;;;;5103467;27;20193;-46
2022/09/26 11:17:58;;;;;;;2.97;2.00;;;13.60;99.90;;;;;;5095309;28;20884;-48
2022/09/26 11:20:41;;;;;;;3.13;2.93;;;13.70;99.90;;;;;;5103517;27;20190;-47
2022/09/26 11:23:22;;;;;;;3.70;2.30;;;13.70;99.90;;;;;;5091382;28;20574;-49
2022/09/26 11:26:00;;;;;;;6.20;2.93;;;13.60;99.90;;;;;;5093710;28;20213;-46
2022/09/26 11:28:33;;;;;;;4.70;1.90;;;13.60;99.90;;;;;;5091791;27;20205;-46
2022/09/26 11:31:25;;;;;;;2.93;2.07;;;13.60;99.90;;;;;;5098071;27;20678;-49
2022/09/26 11:34:15;;;;;;;3.83;2.33;;;13.60;99.90;;;;;;5102332;27;20208;-47
2022/09/26 11:37:12;;;;;;;3.07;1.80;;;13.50;99.90;;;;;;5093753;28;20905;-46
2022/09/26 11:39:57;;;;;;;3.00;1.90;;;13.50;99.90;;;;;;5102120;28;20609;-45
2022/09/26 11:42:36;;;;;;;4.43;2.50;;;13.40;99.90;;;;;;5103992;28;20201;-46
2022/09/26 11:45:14;;;;;;;3.87;2.40;;;13.40;99.90;;;;;;5095532;27;20212;-49
2022/09/26 11:48:30;;;;;;;2.23;2.03;;;13.30;99.90;;;;;;5087833;27;20254;-47
2022/09/26 11:51:59;;;;;;;6.10;2.47;;;13.20;99.90;;;;;;5094798;28;20209;-45
2022/09/26 11:54:49;;;;;;;2.73;2.53;;;13.20;99.90;;;;;;5093143;28;20212;-43
2022/09/26 11:57:31;;;;;;;2.93;2.70;;;13.10;99.90;;;;;;5103362;28;20705;-47
2022/09/26 12:00:07;;;;;;;3.83;2.80;;;13.00;99.90;;;;;;5090069;27;20857;-49
2022/09/26 12:03:18;;;;;;;2.93;2.73;;;12.90;99.90;;;;;;5099087;27;20197;-44
2022/09/26 12:05:52;;;;;;;3.40;2.63;;;12.90;99.90;;;;;;5077979;28;20280;-49
2022/09/26 12:08:35;;;;;;;3.70;2.80;;;12.80;99.90;;;;;;5096196;28;20197;-48
2022/09/26 12:11:15;;;;;;;2.80;2.60;;;12.80;99.90;;;;;;5103943;27;20567;-48
2022/09/26 12:13:53;;;;;;;4.83;2.57;;;12.70;99.90;;;;;;5093723;27;21004;-48
2022/09/26 12:16:27;;;;;;;2.83;2.53;;;12.60;99.90;;;;;;5091220;27;20783;-46
2022/09/26 12:19:04;;;;;;;6.13;2.90;;;12.60;99.90;;;;;;5093200;27;20293;-48
2022/09/26 12:22:26;;;;;;;3.67;3.20;;;12.50;99.90;;;;;;5098341;28;20197;-46
2022/09/26 12:24:36;;;;;;;4.90;3.30;;;12.50;99.90;;;;;;5094359;28;20212;-46
2022/09/26 12:27:12;;;;;;;5.33;3.53;;;12.50;99.90;;;;;;5104497;27;20216;-46
2022/09/26 12:29:47;;;;;;;4.77;3.10;;;12.50;99.90;;;;;;5100277;27;20237;-47
2022/09/26 12:32:34;;;;;;;3.73;3.10;;;12.50;99.90;;;;;;5086489;27;20198;-46
2022/09/26 12:35:18;;;;;;;3.63;3.33;;;12.50;99.90;;;;;;5101611;27;20189;-47
2022/09/26 12:38:15;;;;;;;4.80;3.20;;;12.50;99.90;;;;;;5087884;27;20229;-46
2022/09/26 12:40:51;;;;;;;4.10;3.10;;;12.50;99.90;;;;;;5099397;28;20224;-45
2022/09/26 12:43:34;;;;;;;5.17;3.10;;;12.40;99.90;;;;;;5096127;27;20201;-44
2022/09/26 12:46:40;;;;;;;6.77;3.07;;;12.50;99.90;;;;;;5097197;28;20213;-45
2022/09/26 12:49:33;;;;;;;3.87;3.40;;;12.60;99.90;;;;;;5080977;28;20215;-48
2022/09/26 12:52:06;;;;;;;4.83;3.10;;;12.60;99.90;;;;;;5102659;28;20209;-47
2022/09/26 12:54:44;;;;;;;3.47;3.17;;;12.60;99.90;;;;;;5095174;27;20205;-47
2022/09/26 12:57:23;;;;;;;3.40;3.10;;;12.70;99.90;;;;;;5103511;28;20251;-47
2022/09/26 13:00:08;;;;;;;4.70;3.30;;;12.70;99.90;;;;;;5097669;28;20344;-48
2022/09/26 13:03:09;;;;;;;3.60;2.87;;;12.70;99.90;;;;;;5091837;27;20301;-43
2022/09/26 13:06:19;;;;;;;6.23;3.20;;;12.70;99.90;;;;;;5094223;27;20208;-46
2022/09/26 13:08:56;;;;;;;3.83;2.50;;;12.70;99.90;;;;;;5041807;28;20206;-44
2022/09/26 13:11:30;;;;;;;5.83;3.00;;;12.70;99.90;;;;;;5092189;27;20316;-49
2022/09/26 13:14:28;;;;;;;2.80;2.60;;;12.70;99.90;;;;;;5101233;27;20282;-44
2022/09/26 13:17:08;;;;;;;3.10;2.77;;;12.70;99.90;;;;;;5084340;28;21123;-45
2022/09/26 13:19:38;;;;;;;4.67;2.57;;;12.70;99.90;;;;;;5101280;27;20197;-44
2022/09/26 13:22:15;;;;;;;2.97;2.60;;;12.70;99.90;;;;;;5083440;28;20206;-45
2022/09/26 13:24:51;;;;;;;2.87;2.57;;;12.70;99.90;;;;;;5085853;27;20285;-45
2022/09/26 13:27:25;;;;;;;3.60;2.40;;;12.70;99.90;;;;;;5101788;28;20692;-48
2022/09/26 13:30:00;;;;;;;4.80;3.00;;;12.70;99.90;;;;;;5090470;27;20228;-49
2022/09/26 13:32:35;;;;;;;2.70;2.50;;;12.70;99.90;;;;;;5097598;27;20221;-46
2022/09/26 13:35:13;;;;;;;2.70;2.50;;;12.70;99.90;;;;;;5104990;27;20201;-46
2022/09/26 13:37:52;;;;;;;2.80;2.27;;;12.70;99.90;;;;;;5095960;27;20245;-47
2022/09/26 13:40:30;;;;;;;4.40;2.40;;;12.70;99.90;;;;;;5104009;27;20197;-45
2022/09/26 13:43:09;;;;;;;3.03;2.73;;;12.80;99.90;;;;;;5102050;27;20280;-46
2022/09/26 13:45:54;;;;;;;2.47;2.23;;;12.80;99.90;;;;;;5095894;27;20209;-45
2022/09/26 13:48:33;;;;;;;2.67;1.90;;;12.70;99.90;;;;;;5101999;27;20201;-45
2022/09/26 13:51:10;;;;;;;4.90;2.00;;;12.70;99.90;;;;;;5096514;27;20220;-49
2022/09/26 13:53:43;;;;;;;2.73;2.27;;;12.70;99.90;;;;;;5115048;27;20939;-45